createdAt,value
2022-08-17T00:02:26.120Z,7.18
2022-08-17T00:04:54.361Z,7.57
2022-08-17T00:07:21.665Z,6.60
2022-08-17T00:09:49.011Z,7.20
2022-08-17T00:12:43.156Z,6.47
2022-08-17T00:15:03.898Z,7.10
2022-08-17T00:17:31.003Z,7.72
2022-08-17T00:19:57.941Z,7.45
2022-08-17T00:22:34.815Z,7.72
2022-08-17T00:25:07.571Z,7.80
2022-08-17T00:27:35.348Z,7.65
2022-08-17T00:30:04.057Z,7.35
2022-08-17T00:33:15.648Z,7.32
2022-08-17T00:37:55.658Z,7.38
2022-08-17T00:40:24.792Z,7.50
2022-08-17T00:42:53.511Z,7.90
2022-08-17T00:45:21.285Z,7.28
2022-08-17T00:47:49.556Z,7.55
2022-08-17T00:50:19.055Z,7.55
2022-08-17T00:52:56.444Z,7.50
2022-08-17T00:55:25.378Z,7.68
2022-08-17T00:57:55.893Z,7.53
2022-08-17T01:00:27.285Z,7.32
2022-08-17T01:03:02.480Z,7.95
2022-08-17T01:05:32.904Z,8.43
2022-08-17T01:08:02.047Z,7.30
2022-08-17T01:10:58.481Z,7.60
2022-08-17T01:13:28.834Z,7.75
2022-08-17T01:16:04.788Z,7.32
2022-08-17T01:18:32.908Z,7.82
2022-08-17T01:21:17.155Z,7.63
2022-08-17T01:23:44.163Z,7.88
2022-08-17T01:26:11.344Z,7.18
2022-08-17T01:28:54.560Z,7.40
2022-08-17T01:31:24.358Z,7.70
2022-08-17T01:33:51.481Z,7.70
2022-08-17T01:36:18.700Z,7.07
2022-08-17T01:38:45.776Z,7.47
2022-08-17T01:41:16.658Z,6.90
2022-08-17T01:43:55.057Z,6.93
2022-08-17T01:46:27.153Z,7.15
2022-08-17T01:48:56.469Z,6.88
2022-08-17T01:51:26.220Z,7.18
2022-08-17T01:53:57.928Z,7.03
2022-08-17T01:56:26.232Z,6.78
2022-08-17T01:58:53.434Z,6.82
2022-08-17T02:01:24.397Z,6.75
2022-08-17T02:03:53.500Z,7.13
2022-08-17T02:06:30.481Z,7.28
2022-08-17T02:09:02.938Z,6.75
2022-08-17T02:11:33.776Z,6.65
2022-08-17T02:14:03.167Z,6.60
2022-08-17T02:16:37.368Z,7.28
2022-08-17T02:19:13.889Z,6.70
2022-08-17T02:21:42.590Z,6.88
2022-08-17T02:24:15.188Z,7.18
2022-08-17T02:26:42.309Z,7.50
2022-08-17T02:29:09.369Z,6.97
2022-08-17T02:31:36.584Z,6.75
2022-08-17T02:34:05.369Z,6.72
2022-08-17T02:36:34.367Z,7.22
2022-08-17T02:39:04.287Z,6.80
2022-08-17T02:41:31.437Z,6.70
2022-08-17T02:43:58.877Z,7.03
2022-08-17T02:46:26.432Z,7.00
2022-08-17T02:48:53.843Z,6.93
2022-08-17T02:51:20.802Z,6.85
2022-08-17T02:53:47.923Z,6.10
2022-08-17T02:56:15.145Z,6.60
2022-08-17T02:58:42.292Z,6.63
2022-08-17T03:01:11.009Z,6.93
2022-08-17T03:03:38.360Z,6.97
2022-08-17T03:06:07.948Z,6.90
2022-08-17T03:08:37.631Z,6.88
2022-08-17T03:11:05.029Z,6.53
2022-08-17T03:13:32.260Z,6.72
2022-08-17T03:15:59.619Z,6.43
2022-08-17T03:18:28.075Z,6.60
2022-08-17T03:20:57.641Z,7.13
2022-08-17T03:23:25.729Z,7.07
2022-08-17T03:25:54.283Z,6.78
2022-08-17T03:28:22.364Z,7.20
2022-08-17T03:30:51.177Z,7.55
2022-08-17T03:33:19.093Z,6.53
2022-08-17T03:35:46.488Z,6.68
2022-08-17T03:38:15.954Z,6.88
2022-08-17T03:40:56.437Z,7.30
2022-08-17T03:43:31.176Z,6.28
2022-08-17T03:46:28.615Z,7.32
2022-08-17T03:49:25.997Z,7.47
2022-08-17T03:52:15.757Z,6.82
2022-08-17T03:55:02.814Z,7.45
2022-08-17T03:57:31.064Z,7.13
2022-08-17T03:59:58.218Z,7.45
2022-08-17T04:02:29.709Z,7.82
2022-08-17T04:04:57.555Z,7.03
2022-08-17T04:07:30.920Z,6.93
2022-08-17T04:09:58.386Z,7.78
2022-08-17T04:12:26.842Z,7.13
2022-08-17T04:14:55.263Z,7.85
2022-08-17T04:17:26.156Z,7.75
2022-08-17T04:19:54.240Z,7.65
2022-08-17T04:22:30.534Z,7.90
2022-08-17T04:25:18.192Z,7.18
2022-08-17T04:27:45.258Z,7.30
2022-08-17T04:30:13.363Z,7.18
2022-08-17T04:33:14.349Z,7.45
2022-08-17T04:35:45.853Z,7.60
2022-08-17T04:38:16.235Z,6.97
2022-08-17T04:41:02.727Z,7.25
2022-08-17T04:46:01.673Z,6.78
2022-08-17T04:48:37.214Z,7.43
2022-08-17T04:51:12.136Z,6.90
2022-08-17T04:53:41.845Z,7.40
2022-08-17T04:56:16.200Z,7.28
2022-08-17T04:58:48.329Z,7.38
2022-08-17T05:01:23.449Z,6.90
2022-08-17T05:03:53.410Z,7.10
2022-08-17T05:06:21.056Z,7.38
2022-08-17T05:08:48.173Z,7.43
2022-08-17T05:11:17.979Z,6.78
2022-08-17T05:13:45.233Z,8.13
2022-08-17T05:16:15.427Z,7.00
2022-08-17T05:18:43.372Z,7.20
2022-08-17T05:21:10.656Z,8.10
2022-08-17T05:23:42.928Z,7.72
2022-08-17T05:26:25.465Z,7.80
2022-08-17T05:29:00.656Z,7.47
2022-08-17T05:31:30.941Z,7.28
2022-08-17T05:33:58.313Z,7.07
2022-08-17T05:36:41.684Z,6.88
2022-08-17T05:39:16.319Z,7.32
2022-08-17T05:41:48.411Z,8.13
2022-08-17T05:44:16.592Z,7.28
2022-08-17T05:46:52.192Z,6.95
2022-08-17T05:49:26.266Z,7.00
2022-08-17T05:55:13.034Z,7.20
2022-08-17T05:57:55.927Z,7.28
2022-08-17T06:00:37.276Z,6.68
2022-08-17T06:03:28.468Z,6.57
2022-08-17T06:06:17.390Z,6.80
2022-08-17T06:09:03.351Z,5.95
2022-08-17T06:12:00.333Z,6.82
2022-08-17T06:14:30.442Z,6.57
2022-08-17T06:17:16.412Z,5.78
2022-08-17T06:19:49.323Z,6.30
2022-08-17T06:22:22.313Z,6.25
2022-08-17T06:24:53.845Z,6.47
2022-08-17T06:27:45.047Z,5.97
2022-08-17T06:30:16.810Z,5.63
2022-08-17T06:32:50.618Z,6.28
2022-08-17T06:36:02.609Z,6.20
2022-08-17T06:38:53.852Z,5.65
2022-08-17T06:41:49.737Z,5.53
2022-08-17T06:44:43.312Z,5.13
2022-08-17T06:47:28.701Z,5.07
2022-08-17T06:50:16.048Z,5.10
2022-08-17T06:53:10.760Z,5.03
2022-08-17T06:55:56.108Z,5.03
2022-08-17T06:58:29.558Z,5.20
2022-08-17T07:01:01.829Z,5.85
2022-08-17T07:03:38.142Z,5.20
2022-08-17T07:06:13.400Z,5.88
2022-08-17T07:09:13.842Z,5.38
2022-08-17T07:12:05.636Z,5.35
2022-08-17T07:14:52.151Z,5.28
2022-08-17T07:17:24.359Z,4.30
2022-08-17T07:20:16.511Z,4.78
2022-08-17T07:23:04.962Z,4.70
2022-08-17T07:25:32.781Z,4.85
2022-08-17T07:28:05.985Z,4.88
2022-08-17T07:30:45.799Z,4.70
2022-08-17T07:33:20.329Z,5.15
2022-08-17T07:35:49.331Z,5.03
2022-08-17T07:38:28.445Z,5.15
2022-08-17T07:41:02.163Z,5.63
2022-08-17T07:43:31.178Z,5.47
2022-08-17T07:46:25.500Z,5.53
2022-08-17T07:49:16.469Z,5.07
2022-08-17T07:51:44.093Z,4.97
2022-08-17T07:54:22.748Z,4.70
2022-08-17T07:56:50.884Z,5.50
2022-08-17T07:59:33.524Z,4.70
2022-08-17T08:02:02.831Z,5.35
2022-08-17T08:05:14.379Z,5.30
2022-08-17T08:08:16.279Z,6.00
2022-08-17T08:10:45.217Z,5.60
2022-08-17T08:13:32.526Z,5.30
2022-08-17T08:16:25.044Z,5.28
2022-08-17T08:18:59.849Z,5.47
2022-08-17T08:21:48.369Z,5.38
2022-08-17T08:24:34.188Z,4.85
2022-08-17T08:27:20.302Z,5.00
2022-08-17T08:32:28.989Z,5.43
2022-08-17T08:35:14.832Z,5.57
2022-08-17T08:38:33.356Z,5.15
2022-08-17T08:41:24.106Z,4.80
2022-08-17T08:44:22.214Z,4.85
2022-08-17T08:47:26.638Z,4.65
2022-08-17T08:50:08.090Z,4.95
2022-08-17T08:53:11.199Z,4.70
2022-08-17T08:55:53.739Z,5.55
2022-08-17T08:58:48.599Z,5.38
2022-08-17T09:01:51.470Z,4.63
2022-08-17T09:05:10.273Z,4.32
2022-08-17T09:07:45.049Z,4.70
2022-08-17T09:10:22.233Z,5.38
2022-08-17T09:13:23.243Z,4.80
2022-08-17T09:15:59.671Z,5.18
2022-08-17T09:19:02.303Z,4.97
2022-08-17T09:21:33.664Z,4.95
2022-08-17T09:24:14.013Z,4.90
2022-08-17T09:27:07.626Z,5.50
2022-08-17T09:29:39.740Z,4.85
2022-08-17T09:32:22.545Z,4.28
2022-08-17T09:34:58.623Z,3.90
2022-08-17T09:37:47.155Z,4.00
2022-08-17T09:40:30.436Z,4.30
2022-08-17T09:43:41.228Z,4.22
2022-08-17T09:46:41.501Z,4.68
2022-08-17T09:49:12.373Z,4.45
2022-08-17T09:51:49.642Z,4.53
2022-08-17T09:54:44.673Z,4.25
2022-08-17T09:57:30.661Z,4.28
2022-08-17T10:00:25.242Z,4.72
2022-08-17T10:02:58.626Z,4.22
2022-08-17T10:05:47.522Z,4.00
2022-08-17T10:08:33.492Z,4.15
2022-08-17T10:11:48.151Z,4.25
2022-08-17T10:14:53.465Z,4.03
2022-08-17T10:20:19.946Z,4.45
2022-08-17T10:23:27.990Z,3.75
2022-08-17T10:26:14.831Z,3.63
2022-08-17T10:28:54.728Z,3.80
2022-08-17T10:31:35.770Z,3.83
2022-08-17T10:34:26.859Z,3.90
2022-08-17T10:37:32.615Z,4.18
2022-08-17T10:40:26.513Z,3.80
2022-08-17T10:43:01.580Z,3.88
2022-08-17T10:45:45.949Z,3.87
2022-08-17T10:48:14.394Z,3.13
2022-08-17T10:50:58.144Z,3.35
2022-08-17T10:53:49.790Z,2.95
2022-08-17T10:56:19.181Z,3.50
2022-08-17T10:59:01.409Z,3.20
2022-08-17T11:01:37.255Z,3.00
2022-08-17T11:04:09.154Z,3.45
2022-08-17T11:06:39.155Z,2.97
2022-08-17T11:09:26.359Z,3.17
2022-08-17T11:12:28.123Z,3.00
2022-08-17T11:15:37.041Z,3.80
2022-08-17T11:18:42.073Z,3.22
2022-08-17T11:21:28.069Z,3.72
2022-08-17T11:24:14.834Z,3.67
2022-08-17T11:26:49.106Z,3.63
2022-08-17T11:29:27.770Z,3.60
2022-08-17T11:32:02.300Z,3.63
2022-08-17T11:34:32.442Z,3.67
2022-08-17T11:37:18.150Z,3.28
2022-08-17T11:40:08.652Z,3.33
2022-08-17T11:43:01.014Z,3.55
2022-08-17T11:45:56.138Z,3.28
2022-08-17T11:48:57.952Z,3.15
2022-08-17T11:51:54.311Z,3.28
2022-08-17T11:54:33.270Z,3.10
2022-08-17T11:57:26.850Z,3.35
2022-08-17T12:00:00.282Z,3.60
2022-08-17T12:02:31.452Z,3.40
2022-08-17T12:05:18.153Z,2.88
2022-08-17T12:10:19.052Z,3.47
2022-08-17T12:12:48.629Z,3.45
2022-08-17T12:15:28.716Z,3.40
2022-08-17T12:17:57.471Z,3.60
2022-08-17T12:20:32.575Z,3.08
2022-08-17T12:23:25.546Z,3.35
2022-08-17T12:26:26.050Z,2.97
2022-08-17T12:29:00.317Z,2.88
2022-08-17T12:31:29.783Z,3.75
2022-08-17T12:33:56.860Z,3.30
2022-08-17T12:36:26.578Z,2.90
2022-08-17T12:39:13.297Z,3.42
2022-08-17T12:41:54.733Z,3.40
2022-08-17T12:44:34.463Z,3.20
2022-08-17T12:47:21.056Z,3.40
2022-08-17T12:49:54.773Z,3.50
2022-08-17T12:52:32.926Z,3.08
2022-08-17T12:55:06.037Z,3.20
2022-08-17T12:57:39.903Z,3.40
2022-08-17T13:00:26.528Z,3.40
2022-08-17T13:03:13.725Z,3.50
2022-08-17T13:05:57.110Z,3.75
2022-08-17T13:08:38.160Z,3.88
2022-08-17T13:11:18.967Z,3.63
2022-08-17T13:13:51.059Z,3.67
2022-08-17T13:16:27.753Z,3.72
2022-08-17T13:19:15.850Z,3.67
2022-08-17T13:21:53.077Z,3.42
2022-08-17T13:24:27.695Z,3.47
2022-08-17T13:27:08.811Z,3.87
2022-08-17T13:29:51.435Z,3.38
2022-08-17T13:32:44.019Z,3.22
2022-08-17T13:35:39.569Z,3.40
2022-08-17T13:38:09.915Z,3.55
2022-08-17T13:40:44.174Z,3.88
2022-08-17T13:43:12.267Z,3.67
2022-08-17T13:45:51.224Z,3.28
2022-08-17T13:48:27.514Z,4.13
2022-08-17T13:50:57.681Z,3.22
2022-08-17T13:53:36.958Z,4.18
2022-08-17T13:56:37.082Z,3.10
2022-08-17T13:59:01.796Z,3.55
2022-08-17T14:01:32.880Z,3.55
2022-08-17T14:04:06.574Z,3.70
2022-08-17T14:06:52.838Z,4.05
2022-08-17T14:09:24.332Z,3.15
2022-08-17T14:11:54.410Z,3.65
2022-08-17T14:14:23.446Z,3.55
2022-08-17T14:16:52.498Z,3.40
2022-08-17T14:19:22.093Z,3.60
2022-08-17T14:21:49.406Z,3.33
2022-08-17T14:24:21.966Z,3.45
2022-08-17T14:26:52.925Z,3.17
2022-08-17T14:29:25.771Z,3.70
2022-08-17T14:31:54.795Z,2.97
2022-08-17T14:34:23.191Z,2.97
2022-08-17T14:36:51.408Z,3.33
2022-08-17T14:39:20.031Z,2.95
2022-08-17T14:41:47.668Z,3.08
2022-08-17T14:44:15.633Z,3.22
2022-08-17T14:46:44.532Z,3.45
2022-08-17T14:49:16.260Z,2.97
2022-08-17T14:51:44.431Z,3.10
2022-08-17T14:54:32.993Z,2.95
2022-08-17T14:57:23.425Z,3.08
2022-08-17T14:59:54.995Z,3.08
2022-08-17T15:02:29.744Z,2.72
2022-08-17T15:05:04.615Z,2.90
2022-08-17T15:07:31.930Z,3.10
2022-08-17T15:10:02.805Z,3.28
2022-08-17T15:12:34.077Z,3.15
2022-08-17T15:15:05.450Z,3.38
2022-08-17T15:17:44.929Z,2.80
2022-08-17T15:20:20.729Z,3.03
2022-08-17T15:22:56.085Z,3.13
2022-08-17T15:27:52.023Z,3.10
2022-08-17T15:30:20.105Z,3.22
2022-08-17T15:32:54.030Z,3.05
2022-08-17T15:35:28.968Z,3.22
2022-08-17T15:38:06.190Z,2.70
2022-08-17T15:40:37.954Z,2.92
2022-08-17T15:43:11.918Z,3.25
2022-08-17T15:45:40.244Z,3.20
2022-08-17T15:48:07.722Z,3.25
2022-08-17T15:50:35.823Z,3.53
2022-08-17T15:53:05.123Z,3.00
2022-08-17T15:55:33.892Z,3.50
2022-08-17T15:58:02.398Z,2.88
2022-08-17T16:00:30.058Z,3.17
2022-08-17T16:03:44.648Z,3.30
2022-08-17T16:05:50.589Z,2.75
2022-08-17T16:08:21.234Z,2.80
2022-08-17T16:10:49.834Z,2.88
2022-08-17T16:13:18.488Z,3.22
2022-08-17T16:15:56.573Z,2.90
2022-08-17T16:18:26.477Z,3.47
2022-08-17T16:20:53.725Z,3.10
2022-08-17T16:23:20.670Z,2.78
2022-08-17T16:25:52.946Z,2.95
2022-08-17T16:28:22.121Z,2.80
2022-08-17T16:30:49.865Z,3.28
2022-08-17T16:33:18.811Z,4.13
2022-08-17T16:35:46.242Z,3.47
2022-08-17T16:38:13.442Z,3.60
2022-08-17T16:40:41.482Z,3.78
2022-08-17T16:43:12.258Z,3.05
2022-08-17T16:45:41.066Z,3.58
2022-08-17T16:48:09.156Z,3.42
2022-08-17T16:50:36.896Z,3.45
2022-08-17T16:53:11.082Z,3.53
2022-08-17T16:55:38.680Z,3.53
2022-08-17T16:58:06.637Z,3.05
2022-08-17T17:00:34.583Z,3.50
2022-08-17T17:03:19.973Z,3.65
2022-08-17T17:05:58.027Z,3.77
2022-08-17T17:08:33.520Z,4.28
2022-08-17T17:11:16.325Z,3.95
2022-08-17T17:13:49.262Z,5.32
2022-08-17T17:16:41.602Z,3.75
2022-08-17T17:19:34.598Z,5.20
2022-08-17T17:22:17.064Z,5.38
2022-08-17T17:24:50.405Z,5.00
2022-08-17T17:27:55.052Z,4.85
2022-08-17T17:30:34.990Z,4.40
2022-08-17T17:33:14.770Z,4.25
2022-08-17T17:36:07.205Z,4.80
2022-08-17T17:38:49.341Z,5.00
2022-08-17T17:41:26.338Z,4.13
2022-08-17T17:44:01.886Z,4.78
2022-08-17T17:46:38.199Z,4.60
2022-08-17T17:49:06.433Z,4.82
2022-08-17T17:52:06.402Z,4.65
2022-08-17T17:54:33.715Z,4.53
2022-08-17T17:57:21.490Z,9.48
2022-08-17T18:00:29.677Z,8.35
2022-08-17T18:03:08.924Z,6.75
2022-08-17T18:05:51.780Z,6.07
2022-08-17T18:08:49.720Z,5.55
2022-08-17T18:11:35.190Z,5.05
2022-08-17T18:14:30.440Z,4.90
2022-08-17T18:17:00.489Z,5.00
2022-08-17T18:19:29.422Z,4.00
2022-08-17T18:22:19.326Z,4.50
2022-08-17T18:24:49.082Z,4.97
2022-08-17T18:27:43.437Z,5.78
2022-08-17T18:30:13.470Z,4.97
2022-08-17T18:32:43.732Z,5.47
2022-08-17T18:35:14.434Z,5.28
2022-08-17T18:37:53.776Z,5.78
2022-08-17T18:40:21.413Z,6.35
2022-08-17T18:43:24.458Z,5.13
2022-08-17T18:45:58.250Z,5.97
2022-08-17T18:48:28.467Z,6.75
2022-08-17T18:51:27.450Z,6.55
2022-08-17T18:54:17.603Z,5.57
2022-08-17T18:56:51.300Z,6.13
2022-08-17T18:59:33.889Z,5.80
2022-08-17T19:02:09.989Z,5.50
2022-08-17T19:05:08.041Z,5.88
2022-08-17T19:07:42.340Z,5.88
2022-08-17T19:10:24.598Z,5.85
2022-08-17T19:13:15.621Z,5.28
2022-08-17T19:16:17.847Z,4.68
2022-08-17T19:18:47.783Z,6.13
2022-08-17T19:21:25.900Z,5.88
2022-08-17T19:23:59.121Z,5.80
2022-08-17T19:26:54.451Z,5.55
2022-08-17T19:29:39.262Z,4.95
2022-08-17T19:32:12.100Z,6.10
2022-08-17T19:34:45.215Z,5.30
2022-08-17T19:37:30.840Z,6.05
2022-08-17T19:40:51.880Z,5.57
2022-08-17T19:43:58.320Z,5.65
2022-08-17T19:46:43.060Z,5.72
2022-08-17T19:49:53.646Z,5.85
2022-08-17T19:52:32.789Z,5.32
2022-08-17T19:55:20.905Z,5.72
2022-08-17T19:58:32.094Z,5.70
2022-08-17T20:01:01.181Z,5.57
2022-08-17T20:03:38.973Z,5.32
2022-08-17T20:06:14.254Z,5.20
2022-08-17T20:08:49.361Z,5.45
2022-08-17T20:11:21.289Z,4.90
2022-08-17T20:13:58.952Z,5.20
2022-08-17T20:16:26.339Z,5.35
2022-08-17T20:19:03.511Z,5.05
2022-08-17T20:22:06.858Z,5.53
2022-08-17T20:24:44.345Z,5.68
2022-08-17T20:28:02.901Z,5.70
2022-08-17T20:30:41.874Z,6.07
2022-08-17T20:33:31.842Z,5.68
2022-08-17T20:36:13.134Z,5.70
2022-08-17T20:38:51.337Z,5.68
2022-08-17T20:41:25.211Z,5.65
2022-08-17T20:43:59.068Z,5.15
2022-08-17T20:46:38.386Z,5.28
2022-08-17T20:49:14.668Z,5.28
2022-08-17T20:52:13.553Z,5.82
2022-08-17T20:54:47.002Z,5.55
2022-08-17T20:57:32.212Z,5.10
2022-08-17T21:00:15.857Z,4.88
2022-08-17T21:02:52.084Z,5.57
2022-08-17T21:05:34.182Z,5.63
2022-08-17T21:08:14.377Z,5.10
2022-08-17T21:10:45.878Z,5.10
2022-08-17T21:13:15.348Z,5.50
2022-08-17T21:15:42.650Z,5.80
2022-08-17T21:18:23.611Z,5.32
2022-08-17T21:21:34.414Z,5.45
2022-08-17T21:24:01.366Z,6.03
2022-08-17T21:26:32.575Z,6.00
2022-08-17T21:29:32.368Z,6.38
2022-08-17T21:32:00.650Z,6.25
2022-08-17T21:34:37.074Z,6.50
2022-08-17T21:37:25.391Z,6.47
2022-08-17T21:40:10.818Z,7.15
2022-08-17T21:43:02.276Z,6.45
2022-08-17T21:45:39.024Z,5.80
2022-08-17T21:48:11.604Z,6.60
2022-08-17T21:50:41.641Z,6.28
2022-08-17T21:53:14.211Z,6.32
2022-08-17T21:55:41.308Z,6.43
2022-08-17T21:58:34.362Z,6.43
2022-08-17T22:01:13.391Z,7.05
2022-08-17T22:03:41.692Z,6.68
2022-08-17T22:06:28.570Z,6.43
2022-08-17T22:09:27.824Z,6.60
2022-08-17T22:12:03.271Z,6.18
2022-08-17T22:14:51.454Z,6.68
2022-08-17T22:17:28.462Z,6.43
2022-08-17T22:20:01.724Z,6.53
2022-08-17T22:22:56.792Z,6.90
2022-08-17T22:25:26.263Z,6.55
2022-08-17T22:27:57.720Z,6.60
2022-08-17T22:30:30.391Z,6.75
2022-08-17T22:32:58.119Z,7.20
2022-08-17T22:35:38.032Z,7.15
2022-08-17T22:38:19.915Z,7.35
2022-08-17T22:40:52.588Z,6.78
2022-08-17T22:43:26.746Z,6.65
2022-08-17T22:45:56.820Z,6.90
2022-08-17T22:48:27.153Z,6.97
2022-08-17T22:51:12.588Z,7.07
2022-08-17T22:54:34.405Z,6.40
2022-08-17T22:57:23.984Z,6.63
2022-08-17T22:59:54.997Z,7.72
2022-08-17T23:02:26.259Z,6.80
2022-08-17T23:05:10.824Z,6.93
2022-08-17T23:07:38.011Z,7.00
2022-08-17T23:10:06.585Z,7.18
2022-08-17T23:12:40.079Z,7.13
2022-08-17T23:15:14.444Z,6.97
2022-08-17T23:17:42.142Z,7.60
2022-08-17T23:20:14.783Z,7.03
2022-08-17T23:22:51.403Z,7.18
2022-08-17T23:25:28.059Z,7.18
2022-08-17T23:27:57.540Z,6.93
2022-08-17T23:30:25.722Z,6.97
2022-08-17T23:32:56.621Z,7.25
2022-08-17T23:35:40.279Z,7.22
2022-08-17T23:38:09.404Z,7.30
2022-08-17T23:40:37.848Z,6.68
2022-08-17T23:43:24.021Z,6.75
2022-08-17T23:45:53.351Z,7.53
2022-08-17T23:48:36.132Z,7.20
2022-08-17T23:51:19.044Z,7.70
2022-08-17T23:53:51.055Z,7.63
2022-08-17T23:56:24.157Z,6.90
2022-08-17T23:58:51.540Z,7.85
